Skip Navigation Links
NOAA logo - Click to go to the NOAA homepage
NOAA's National Weather Service
Alaska Aviation Weather Unit
  NWS logo - Click to go to the NWS homepage
Left Navbar Graphic     00 AKDT = 08 GMT

   
NOAA is celebrating 200 years of science, service, and stewardship. Visit the NOAA 200th celebration Web site to learn more.
USA.gov is the U.S. Government's official Web portal to all Federal, state and local government Web resources and services.
Facebook
NWS on Facebook

Important Change Regarding the AAWU Web Presence

 

Over the last several months, the AAWU has been working to navigate its webpages to a nationally supported server. Security, as well as other needs, have necessitated the change.  We have been given an extension for the site changeover while we diligently work at addressing feedback received. As of July 14, 2017, aawu.arh.noaa.gov will be discontinued. The new AAWU web address is weather.gov/aawu. It is now live and will run in-parallel with the old site until it is discontinued on July 14, 2017. Please continue to send any feedback or questions regarding the new webpages to nws.ar.aawu.webauthors@noaa.gov.  Thank you for your patience during this time of transition.
AAWU Home :: Display TAF Add Bookmark
TAF PAKN 240543Z 2406/2506  22010KT 6SM -RA BR BKN015 OVC020
     FM241600 20010KT 6SM -RA BR SCT005 OVC015
     FM241900 20010G15KT P6SM VCSH FEW020 BKN035=

4793
FTAK31 PANC 240543
TAFADL
TAF

METAR PAKN 240254Z 24006KT 10SM -RA BKN013 OVC019 09/08 A2932= PAKN 240326Z 22007KT 10SM OVC015 09/08 A2933= SPECI PAKN 240326Z 22007KT 10SM OVC015 09/08 A2933 RMK AO2 RAE0259 P0000 T00890083= PAKN 240336Z 22005KT 10SM FEW009 BKN013 OVC070 09/08 A2933= PAKN 240336Z 22005KT 10SM FEW009 BKN013 OVC070 09/08 A2933 RMK AO2 RAE0259 P0000 T00890083= METAR PAKN 240354Z 22008KT 10SM OVC011 08/08 A2933= METAR PAKN 240454Z 22006KT 9SM -RA BKN013 OVC060 08/07 A2934= METAR PAKN 240554Z 21006KT 10SM -RA BKN014 BKN020 OVC035 08/07 A2935= METAR PAKN 240654Z 21005KT 10SM OVC015 08/07 A2937= METAR PAKN 240754Z 23007KT 10SM BKN022 OVC035 07/06 A2938=
 Alaska TAF Map

NOAA's National Weather Service
Alaska Aviation Weather Unit
6930 Sand Lake Road
Anchorage, AK 99502-1845
Disclaimer
Credits
Glossary
Privacy Policy
About Us
Career Opportunities
Contact AAWU Internet Services Site last modified: April, 17th 2012